sensor_id;sensor_type;location;lat;lon;timestamp;P1;durP1;ratioP1;P2;durP2;ratioP2
15065;SDS011;7632;64.944;20.038;2023-12-14T00:01:12;0.60;;;0.60;;
15065;SDS011;7632;64.944;20.038;2023-12-14T00:03:39;0.60;;;0.60;;
15065;SDS011;7632;64.944;20.038;2023-12-14T00:06:07;1.10;;;1.00;;
15065;SDS011;7632;64.944;20.038;2023-12-14T00:08:35;0.90;;;0.90;;
15065;SDS011;7632;64.944;20.038;2023-12-14T00:11:03;0.93;;;0.93;;
15065;SDS011;7632;64.944;20.038;2023-12-14T00:13:31;0.50;;;0.50;;
15065;SDS011;7632;64.944;20.038;2023-12-14T00:15:57;1.37;;;1.07;;
15065;SDS011;7632;64.944;20.038;2023-12-14T00:18:24;0.87;;;0.87;;
15065;SDS011;7632;64.944;20.038;2023-12-14T00:20:51;0.80;;;0.80;;
15065;SDS011;7632;64.944;20.038;2023-12-14T00:23:19;0.40;;;0.40;;
15065;SDS011;7632;64.944;20.038;2023-12-14T00:25:47;0.60;;;0.60;;
15065;SDS011;7632;64.944;20.038;2023-12-14T00:28:14;2.03;;;1.23;;
15065;SDS011;7632;64.944;20.038;2023-12-14T00:30:40;0.80;;;0.80;;
15065;SDS011;7632;64.944;20.038;2023-12-14T00:33:07;0.60;;;0.60;;
15065;SDS011;7632;64.944;20.038;2023-12-14T00:35:34;0.87;;;0.80;;
15065;SDS011;7632;64.944;20.038;2023-12-14T00:38:01;1.00;;;0.90;;
15065;SDS011;7632;64.944;20.038;2023-12-14T00:40:27;1.10;;;0.80;;
15065;SDS011;7632;64.944;20.038;2023-12-14T00:42:56;0.87;;;0.87;;
15065;SDS011;7632;64.944;20.038;2023-12-14T00:45:22;3.37;;;1.30;;
15065;SDS011;7632;64.944;20.038;2023-12-14T00:47:49;2.43;;;0.70;;
15065;SDS011;7632;64.944;20.038;2023-12-14T00:50:16;0.63;;;0.63;;
15065;SDS011;7632;64.944;20.038;2023-12-14T00:52:43;9.20;;;1.50;;
15065;SDS011;7632;64.944;20.038;2023-12-14T00:55:09;0.73;;;0.73;;
15065;SDS011;7632;64.944;20.038;2023-12-14T00:57:36;1.70;;;1.30;;
15065;SDS011;7632;64.944;20.038;2023-12-14T01:00:05;0.80;;;0.80;;
15065;SDS011;7632;64.944;20.038;2023-12-14T01:02:34;1.00;;;0.80;;
15065;SDS011;7632;64.944;20.038;2023-12-14T01:05:01;0.90;;;0.90;;
15065;SDS011;7632;64.944;20.038;2023-12-14T01:07:28;0.50;;;0.50;;
15065;SDS011;7632;64.944;20.038;2023-12-14T01:09:55;0.47;;;0.47;;
15065;SDS011;7632;64.944;20.038;2023-12-14T01:12:22;1.23;;;1.00;;
15065;SDS011;7632;64.944;20.038;2023-12-14T01:14:49;0.60;;;0.60;;
15065;SDS011;7632;64.944;20.038;2023-12-14T01:17:17;0.70;;;0.70;;
15065;SDS011;7632;64.944;20.038;2023-12-14T01:19:43;0.50;;;0.50;;
15065;SDS011;7632;64.944;20.038;2023-12-14T01:22:10;0.90;;;0.73;;
15065;SDS011;7632;64.944;20.038;2023-12-14T01:24:37;0.63;;;0.63;;
15065;SDS011;7632;64.944;20.038;2023-12-14T01:27:04;0.60;;;0.60;;
15065;SDS011;7632;64.944;20.038;2023-12-14T01:29:31;1.23;;;0.70;;
15065;SDS011;7632;64.944;20.038;2023-12-14T01:31:58;1.90;;;0.97;;
15065;SDS011;7632;64.944;20.038;2023-12-14T01:34:26;0.57;;;0.57;;
15065;SDS011;7632;64.944;20.038;2023-12-14T01:36:53;0.87;;;0.87;;
15065;SDS011;7632;64.944;20.038;2023-12-14T01:39:19;0.50;;;0.50;;
15065;SDS011;7632;64.944;20.038;2023-12-14T01:41:46;0.60;;;0.60;;
15065;SDS011;7632;64.944;20.038;2023-12-14T01:44:14;0.50;;;0.50;;
15065;SDS011;7632;64.944;20.038;2023-12-14T01:46:41;0.53;;;0.53;;
15065;SDS011;7632;64.944;20.038;2023-12-14T01:49:07;1.23;;;1.13;;
15065;SDS011;7632;64.944;20.038;2023-12-14T01:51:36;1.93;;;0.63;;
15065;SDS011;7632;64.944;20.038;2023-12-14T01:54:02;0.40;;;0.40;;
15065;SDS011;7632;64.944;20.038;2023-12-14T01:56:29;0.90;;;0.90;;
15065;SDS011;7632;64.944;20.038;2023-12-14T01:58:56;0.90;;;0.90;;
15065;SDS011;7632;64.944;20.038;2023-12-14T02:01:23;1.73;;;0.90;;
15065;SDS011;7632;64.944;20.038;2023-12-14T02:04:08;0.80;;;0.80;;
15065;SDS011;7632;64.944;20.038;2023-12-14T02:06:36;0.67;;;0.67;;
15065;SDS011;7632;64.944;20.038;2023-12-14T02:09:03;0.90;;;0.90;;
15065;SDS011;7632;64.944;20.038;2023-12-14T02:11:30;0.67;;;0.67;;
15065;SDS011;7632;64.944;20.038;2023-12-14T02:13:57;0.70;;;0.70;;
15065;SDS011;7632;64.944;20.038;2023-12-14T02:16:24;0.70;;;0.70;;
15065;SDS011;7632;64.944;20.038;2023-12-14T02:18:50;0.57;;;0.57;;
15065;SDS011;7632;64.944;20.038;2023-12-14T02:21:17;1.47;;;1.10;;
15065;SDS011;7632;64.944;20.038;2023-12-14T02:23:46;0.80;;;0.80;;
15065;SDS011;7632;64.944;20.038;2023-12-14T02:26:13;0.80;;;0.80;;
15065;SDS011;7632;64.944;20.038;2023-12-14T02:28:40;2.00;;;1.10;;
15065;SDS011;7632;64.944;20.038;2023-12-14T02:31:07;0.90;;;0.90;;
15065;SDS011;7632;64.944;20.038;2023-12-14T02:33:34;0.90;;;0.90;;
15065;SDS011;7632;64.944;20.038;2023-12-14T02:36:01;0.90;;;0.90;;
15065;SDS011;7632;64.944;20.038;2023-12-14T02:38:28;0.70;;;0.70;;
15065;SDS011;7632;64.944;20.038;2023-12-14T02:40:57;0.60;;;0.60;;
15065;SDS011;7632;64.944;20.038;2023-12-14T02:43:24;0.87;;;0.87;;
15065;SDS011;7632;64.944;20.038;2023-12-14T02:45:50;0.50;;;0.50;;
15065;SDS011;7632;64.944;20.038;2023-12-14T02:48:17;5.20;;;0.67;;
15065;SDS011;7632;64.944;20.038;2023-12-14T02:50:44;0.60;;;0.60;;
15065;SDS011;7632;64.944;20.038;2023-12-14T02:53:11;1.27;;;1.20;;
15065;SDS011;7632;64.944;20.038;2023-12-14T02:55:37;1.00;;;0.83;;
15065;SDS011;7632;64.944;20.038;2023-12-14T02:58:06;0.93;;;0.93;;
15065;SDS011;7632;64.944;20.038;2023-12-14T03:00:32;0.70;;;0.70;;
15065;SDS011;7632;64.944;20.038;2023-12-14T03:02:59;1.10;;;1.00;;
15065;SDS011;7632;64.944;20.038;2023-12-14T03:05:26;0.57;;;0.57;;
15065;SDS011;7632;64.944;20.038;2023-12-14T03:07:53;1.20;;;1.20;;
15065;SDS011;7632;64.944;20.038;2023-12-14T03:10:19;1.03;;;1.03;;
15065;SDS011;7632;64.944;20.038;2023-12-14T03:12:46;2.27;;;0.70;;
15065;SDS011;7632;64.944;20.038;2023-12-14T03:15:14;0.70;;;0.70;;
15065;SDS011;7632;64.944;20.038;2023-12-14T03:17:44;0.80;;;0.80;;
15065;SDS011;7632;64.944;20.038;2023-12-14T03:20:11;0.90;;;0.90;;
15065;SDS011;7632;64.944;20.038;2023-12-14T03:22:39;0.80;;;0.80;;
15065;SDS011;7632;64.944;20.038;2023-12-14T03:25:06;1.63;;;1.53;;
15065;SDS011;7632;64.944;20.038;2023-12-14T03:27:36;0.70;;;0.70;;
15065;SDS011;7632;64.944;20.038;2023-12-14T03:30:03;0.60;;;0.60;;
15065;SDS011;7632;64.944;20.038;2023-12-14T03:32:34;0.80;;;0.80;;
15065;SDS011;7632;64.944;20.038;2023-12-14T03:35:01;0.50;;;0.50;;
15065;SDS011;7632;64.944;20.038;2023-12-14T03:37:28;0.80;;;0.77;;
15065;SDS011;7632;64.944;20.038;2023-12-14T03:39:54;0.90;;;0.70;;
15065;SDS011;7632;64.944;20.038;2023-12-14T03:42:21;0.87;;;0.87;;
15065;SDS011;7632;64.944;20.038;2023-12-14T03:44:48;0.60;;;0.60;;
15065;SDS011;7632;64.944;20.038;2023-12-14T03:47:15;1.03;;;1.03;;
15065;SDS011;7632;64.944;20.038;2023-12-14T03:49:43;0.90;;;0.77;;
15065;SDS011;7632;64.944;20.038;2023-12-14T03:52:10;1.43;;;0.90;;
15065;SDS011;7632;64.944;20.038;2023-12-14T03:54:36;0.70;;;0.70;;
15065;SDS011;7632;64.944;20.038;2023-12-14T03:57:03;0.50;;;0.50;;
15065;SDS011;7632;64.944;20.038;2023-12-14T03:59:30;0.67;;;0.67;;
15065;SDS011;7632;64.944;20.038;2023-12-14T04:01:57;0.70;;;0.70;;
15065;SDS011;7632;64.944;20.038;2023-12-14T04:04:24;1.83;;;0.87;;
15065;SDS011;7632;64.944;20.038;2023-12-14T04:06:52;0.50;;;0.50;;
15065;SDS011;7632;64.944;20.038;2023-12-14T04:09:19;0.73;;;0.70;;
15065;SDS011;7632;64.944;20.038;2023-12-14T04:11:46;0.63;;;0.63;;
15065;SDS011;7632;64.944;20.038;2023-12-14T04:14:13;0.90;;;0.80;;
15065;SDS011;7632;64.944;20.038;2023-12-14T04:16:38;0.80;;;0.70;;
15065;SDS011;7632;64.944;20.038;2023-12-14T04:19:05;0.77;;;0.70;;
15065;SDS011;7632;64.944;20.038;2023-12-14T04:21:35;0.77;;;0.63;;
15065;SDS011;7632;64.944;20.038;2023-12-14T04:24:03;1.17;;;1.10;;
15065;SDS011;7632;64.944;20.038;2023-12-14T04:26:31;1.23;;;1.13;;
15065;SDS011;7632;64.944;20.038;2023-12-14T04:28:57;1.37;;;1.27;;
15065;SDS011;7632;64.944;20.038;2023-12-14T04:31:24;1.43;;;0.80;;
15065;SDS011;7632;64.944;20.038;2023-12-14T04:33:51;0.70;;;0.70;;
15065;SDS011;7632;64.944;20.038;2023-12-14T04:36:18;0.87;;;0.87;;
15065;SDS011;7632;64.944;20.038;2023-12-14T04:38:44;1.27;;;0.83;;
15065;SDS011;7632;64.944;20.038;2023-12-14T04:41:13;0.60;;;0.60;;
15065;SDS011;7632;64.944;20.038;2023-12-14T04:43:40;0.60;;;0.60;;
15065;SDS011;7632;64.944;20.038;2023-12-14T04:46:06;1.47;;;0.80;;
15065;SDS011;7632;64.944;20.038;2023-12-14T08:12:15;2.03;;;0.97;;
15065;SDS011;7632;64.944;20.038;2023-12-14T08:14:42;1.20;;;1.10;;
15065;SDS011;7632;64.944;20.038;2023-12-14T08:17:09;1.53;;;1.17;;
15065;SDS011;7632;64.944;20.038;2023-12-14T08:19:35;1.47;;;1.20;;
15065;SDS011;7632;64.944;20.038;2023-12-14T08:22:02;1.97;;;0.93;;
15065;SDS011;7632;64.944;20.038;2023-12-14T08:24:29;1.13;;;0.90;;
15065;SDS011;7632;64.944;20.038;2023-12-14T08:26:56;1.97;;;1.20;;
15065;SDS011;7632;64.944;20.038;2023-12-14T08:29:25;0.70;;;0.70;;
15065;SDS011;7632;64.944;20.038;2023-12-14T08:31:52;1.47;;;0.90;;
15065;SDS011;7632;64.944;20.038;2023-12-14T08:34:22;1.40;;;1.03;;
15065;SDS011;7632;64.944;20.038;2023-12-14T08:36:48;1.43;;;1.13;;
15065;SDS011;7632;64.944;20.038;2023-12-14T08:39:15;1.00;;;0.90;;
15065;SDS011;7632;64.944;20.038;2023-12-14T08:41:42;1.13;;;1.00;;
15065;SDS011;7632;64.944;20.038;2023-12-14T08:44:10;1.40;;;1.10;;
15065;SDS011;7632;64.944;20.038;2023-12-14T08:46:41;1.40;;;1.17;;
15065;SDS011;7632;64.944;20.038;2023-12-14T08:49:10;1.30;;;1.00;;
15065;SDS011;7632;64.944;20.038;2023-12-14T08:51:37;2.10;;;1.33;;
15065;SDS011;7632;64.944;20.038;2023-12-14T08:54:04;1.93;;;1.47;;
15065;SDS011;7632;64.944;20.038;2023-12-14T08:56:31;1.37;;;1.17;;
15065;SDS011;7632;64.944;20.038;2023-12-14T08:58:58;1.17;;;1.00;;
15065;SDS011;7632;64.944;20.038;2023-12-14T09:01:28;1.13;;;0.90;;
15065;SDS011;7632;64.944;20.038;2023-12-14T09:03:57;1.80;;;1.10;;
15065;SDS011;7632;64.944;20.038;2023-12-14T09:06:23;5.23;;;1.03;;
15065;SDS011;7632;64.944;20.038;2023-12-14T09:08:50;2.10;;;1.30;;
15065;SDS011;7632;64.944;20.038;2023-12-14T09:11:17;1.47;;;1.17;;
15065;SDS011;7632;64.944;20.038;2023-12-14T09:13:44;2.17;;;1.30;;
15065;SDS011;7632;64.944;20.038;2023-12-14T09:16:11;6.77;;;1.30;;
15065;SDS011;7632;64.944;20.038;2023-12-14T09:18:38;1.53;;;1.23;;
15065;SDS011;7632;64.944;20.038;2023-12-14T09:21:06;1.10;;;1.00;;
15065;SDS011;7632;64.944;20.038;2023-12-14T09:23:33;0.80;;;0.80;;
15065;SDS011;7632;64.944;20.038;2023-12-14T09:25:59;1.50;;;1.07;;
15065;SDS011;7632;64.944;20.038;2023-12-14T09:28:26;1.57;;;0.97;;
15065;SDS011;7632;64.944;20.038;2023-12-14T09:30:53;1.20;;;1.00;;
15065;SDS011;7632;64.944;20.038;2023-12-14T09:33:20;1.43;;;1.13;;
15065;SDS011;7632;64.944;20.038;2023-12-14T09:35:47;2.33;;;1.00;;
15065;SDS011;7632;64.944;20.038;2023-12-14T09:38:15;1.60;;;1.10;;
15065;SDS011;7632;64.944;20.038;2023-12-14T09:40:44;1.37;;;1.00;;
15065;SDS011;7632;64.944;20.038;2023-12-14T09:43:11;1.07;;;0.87;;
15065;SDS011;7632;64.944;20.038;2023-12-14T09:45:39;1.83;;;1.30;;
15065;SDS011;7632;64.944;20.038;2023-12-14T09:48:27;2.17;;;1.27;;
15065;SDS011;7632;64.944;20.038;2023-12-14T09:50:55;1.67;;;1.50;;
15065;SDS011;7632;64.944;20.038;2023-12-14T09:53:24;2.20;;;1.03;;
15065;SDS011;7632;64.944;20.038;2023-12-14T09:55:51;2.27;;;1.27;;
15065;SDS011;7632;64.944;20.038;2023-12-14T09:58:18;1.40;;;1.10;;
15065;SDS011;7632;64.944;20.038;2023-12-14T10:00:44;2.33;;;1.27;;
15065;SDS011;7632;64.944;20.038;2023-12-14T10:03:18;1.33;;;1.17;;
15065;SDS011;7632;64.944;20.038;2023-12-14T10:05:46;2.50;;;1.30;;
15065;SDS011;7632;64.944;20.038;2023-12-14T10:08:13;1.83;;;1.17;;
15065;SDS011;7632;64.944;20.038;2023-12-14T10:10:42;1.97;;;1.37;;
15065;SDS011;7632;64.944;20.038;2023-12-14T10:13:09;1.30;;;1.10;;
15065;SDS011;7632;64.944;20.038;2023-12-14T10:15:42;1.40;;;0.93;;
15065;SDS011;7632;64.944;20.038;2023-12-14T10:18:09;1.53;;;1.40;;
15065;SDS011;7632;64.944;20.038;2023-12-14T10:20:36;0.90;;;0.90;;
15065;SDS011;7632;64.944;20.038;2023-12-14T10:23:04;1.87;;;1.20;;
15065;SDS011;7632;64.944;20.038;2023-12-14T10:25:31;1.17;;;0.90;;
15065;SDS011;7632;64.944;20.038;2023-12-14T10:27:58;1.30;;;1.20;;
15065;SDS011;7632;64.944;20.038;2023-12-14T10:30:27;1.93;;;1.23;;
15065;SDS011;7632;64.944;20.038;2023-12-14T10:32:55;17.03;;;1.80;;
15065;SDS011;7632;64.944;20.038;2023-12-14T10:35:22;9.70;;;1.33;;
15065;SDS011;7632;64.944;20.038;2023-12-14T10:37:50;1.87;;;1.13;;
15065;SDS011;7632;64.944;20.038;2023-12-14T10:40:17;2.40;;;1.40;;
15065;SDS011;7632;64.944;20.038;2023-12-14T10:42:45;1.67;;;1.30;;
15065;SDS011;7632;64.944;20.038;2023-12-14T10:45:15;1.40;;;1.10;;
15065;SDS011;7632;64.944;20.038;2023-12-14T10:47:44;1.37;;;1.10;;
15065;SDS011;7632;64.944;20.038;2023-12-14T10:50:11;3.27;;;1.33;;
15065;SDS011;7632;64.944;20.038;2023-12-14T10:52:39;1.40;;;1.13;;
15065;SDS011;7632;64.944;20.038;2023-12-14T10:55:07;1.10;;;1.00;;
15065;SDS011;7632;64.944;20.038;2023-12-14T10:57:37;1.27;;;1.10;;
15065;SDS011;7632;64.944;20.038;2023-12-14T11:00:05;1.30;;;0.97;;
15065;SDS011;7632;64.944;20.038;2023-12-14T11:02:40;2.00;;;1.10;;
15065;SDS011;7632;64.944;20.038;2023-12-14T11:05:11;1.37;;;1.10;;
15065;SDS011;7632;64.944;20.038;2023-12-14T11:07:44;2.37;;;1.40;;
15065;SDS011;7632;64.944;20.038;2023-12-14T11:10:13;1.90;;;1.47;;
15065;SDS011;7632;64.944;20.038;2023-12-14T11:12:50;3.87;;;1.10;;
15065;SDS011;7632;64.944;20.038;2023-12-14T11:15:21;1.27;;;1.10;;
15065;SDS011;7632;64.944;20.038;2023-12-14T11:20:48;1.00;;;0.90;;
15065;SDS011;7632;64.944;20.038;2023-12-14T11:23:16;1.33;;;1.07;;
15065;SDS011;7632;64.944;20.038;2023-12-14T11:25:47;1.57;;;1.20;;
15065;SDS011;7632;64.944;20.038;2023-12-14T11:28:15;1.37;;;1.13;;
15065;SDS011;7632;64.944;20.038;2023-12-14T11:30:43;1.80;;;1.20;;
15065;SDS011;7632;64.944;20.038;2023-12-14T11:33:10;2.67;;;1.60;;
15065;SDS011;7632;64.944;20.038;2023-12-14T11:35:39;1.67;;;1.20;;
15065;SDS011;7632;64.944;20.038;2023-12-14T11:38:06;1.83;;;1.30;;
15065;SDS011;7632;64.944;20.038;2023-12-14T11:40:38;2.47;;;1.63;;
15065;SDS011;7632;64.944;20.038;2023-12-14T11:43:05;1.60;;;1.30;;
15065;SDS011;7632;64.944;20.038;2023-12-14T11:45:33;1.50;;;1.20;;
15065;SDS011;7632;64.944;20.038;2023-12-14T11:48:01;1.50;;;1.20;;
15065;SDS011;7632;64.944;20.038;2023-12-14T11:50:30;1.23;;;1.07;;
15065;SDS011;7632;64.944;20.038;2023-12-14T11:52:59;1.40;;;1.10;;
15065;SDS011;7632;64.944;20.038;2023-12-14T11:55:28;1.73;;;1.33;;
15065;SDS011;7632;64.944;20.038;2023-12-14T11:57:56;1.67;;;1.37;;
15065;SDS011;7632;64.944;20.038;2023-12-14T12:00:24;1.30;;;1.13;;
15065;SDS011;7632;64.944;20.038;2023-12-14T12:02:52;1.17;;;1.07;;
15065;SDS011;7632;64.944;20.038;2023-12-14T12:05:35;1.93;;;1.10;;
15065;SDS011;7632;64.944;20.038;2023-12-14T12:08:04;1.93;;;1.20;;
15065;SDS011;7632;64.944;20.038;2023-12-14T12:10:32;3.20;;;1.20;;
15065;SDS011;7632;64.944;20.038;2023-12-14T12:13:00;1.63;;;1.13;;
15065;SDS011;7632;64.944;20.038;2023-12-14T12:15:28;6.47;;;1.70;;
15065;SDS011;7632;64.944;20.038;2023-12-14T17:11:03;3.27;;;1.73;;
15065;SDS011;7632;64.944;20.038;2023-12-14T17:13:30;3.83;;;1.80;;
15065;SDS011;7632;64.944;20.038;2023-12-14T17:15:56;2.80;;;2.10;;
15065;SDS011;7632;64.944;20.038;2023-12-14T17:18:23;4.97;;;1.60;;
15065;SDS011;7632;64.944;20.038;2023-12-14T17:20:50;2.80;;;1.53;;
15065;SDS011;7632;64.944;20.038;2023-12-14T17:23:17;3.50;;;2.00;;
15065;SDS011;7632;64.944;20.038;2023-12-14T17:25:43;2.43;;;1.70;;
15065;SDS011;7632;64.944;20.038;2023-12-14T17:28:12;2.43;;;1.80;;
15065;SDS011;7632;64.944;20.038;2023-12-14T17:30:38;3.77;;;1.63;;
15065;SDS011;7632;64.944;20.038;2023-12-14T17:33:05;3.23;;;2.00;;
15065;SDS011;7632;64.944;20.038;2023-12-14T17:35:32;4.67;;;2.43;;
15065;SDS011;7632;64.944;20.038;2023-12-14T17:37:59;6.60;;;3.23;;
15065;SDS011;7632;64.944;20.038;2023-12-14T17:40:26;5.23;;;2.50;;
15065;SDS011;7632;64.944;20.038;2023-12-14T17:42:53;2.60;;;1.87;;
15065;SDS011;7632;64.944;20.038;2023-12-14T17:45:21;3.07;;;2.13;;
15065;SDS011;7632;64.944;20.038;2023-12-14T17:47:48;3.77;;;2.23;;
15065;SDS011;7632;64.944;20.038;2023-12-14T17:50:15;3.67;;;1.80;;
15065;SDS011;7632;64.944;20.038;2023-12-14T17:52:42;3.23;;;2.10;;
15065;SDS011;7632;64.944;20.038;2023-12-14T17:55:09;2.90;;;2.10;;
15065;SDS011;7632;64.944;20.038;2023-12-14T17:57:35;2.40;;;1.90;;
15065;SDS011;7632;64.944;20.038;2023-12-14T18:00:03;3.83;;;2.00;;
15065;SDS011;7632;64.944;20.038;2023-12-14T18:02:33;3.33;;;2.00;;
15065;SDS011;7632;64.944;20.038;2023-12-14T18:05:00;2.50;;;1.77;;
15065;SDS011;7632;64.944;20.038;2023-12-14T18:07:27;3.97;;;2.03;;
15065;SDS011;7632;64.944;20.038;2023-12-14T18:09:53;3.57;;;1.80;;
15065;SDS011;7632;64.944;20.038;2023-12-14T18:12:19;2.93;;;2.00;;
15065;SDS011;7632;64.944;20.038;2023-12-14T18:14:46;2.20;;;1.80;;
15065;SDS011;7632;64.944;20.038;2023-12-14T18:17:13;2.50;;;1.80;;
15065;SDS011;7632;64.944;20.038;2023-12-14T18:19:41;2.37;;;1.60;;
15065;SDS011;7632;64.944;20.038;2023-12-14T18:22:08;4.57;;;1.80;;
15065;SDS011;7632;64.944;20.038;2023-12-14T18:24:35;2.97;;;2.00;;
15065;SDS011;7632;64.944;20.038;2023-12-14T18:27:02;2.43;;;2.00;;
15065;SDS011;7632;64.944;20.038;2023-12-14T18:29:29;2.37;;;1.60;;
15065;SDS011;7632;64.944;20.038;2023-12-14T18:31:55;3.17;;;1.50;;
15065;SDS011;7632;64.944;20.038;2023-12-14T18:34:22;3.20;;;2.00;;
15065;SDS011;7632;64.944;20.038;2023-12-14T18:36:50;2.50;;;1.80;;
15065;SDS011;7632;64.944;20.038;2023-12-14T18:39:17;3.07;;;1.90;;
15065;SDS011;7632;64.944;20.038;2023-12-14T18:41:44;2.67;;;1.50;;
15065;SDS011;7632;64.944;20.038;2023-12-14T18:44:11;3.70;;;1.53;;
15065;SDS011;7632;64.944;20.038;2023-12-14T18:46:37;3.47;;;1.70;;
15065;SDS011;7632;64.944;20.038;2023-12-14T18:49:04;3.30;;;1.90;;
15065;SDS011;7632;64.944;20.038;2023-12-14T18:51:31;3.53;;;2.00;;
15065;SDS011;7632;64.944;20.038;2023-12-14T18:53:59;2.93;;;1.77;;
15065;SDS011;7632;64.944;20.038;2023-12-14T18:56:26;2.20;;;1.60;;
15065;SDS011;7632;64.944;20.038;2023-12-14T18:58:53;2.33;;;1.60;;
15065;SDS011;7632;64.944;20.038;2023-12-14T19:01:20;2.23;;;1.43;;
15065;SDS011;7632;64.944;20.038;2023-12-14T19:03:46;2.53;;;1.60;;
15065;SDS011;7632;64.944;20.038;2023-12-14T19:06:13;2.57;;;1.50;;
15065;SDS011;7632;64.944;20.038;2023-12-14T19:08:42;2.33;;;1.93;;
15065;SDS011;7632;64.944;20.038;2023-12-14T19:11:15;4.00;;;2.00;;
15065;SDS011;7632;64.944;20.038;2023-12-14T19:13:42;3.83;;;2.30;;
15065;SDS011;7632;64.944;20.038;2023-12-14T19:16:08;3.77;;;1.60;;
15065;SDS011;7632;64.944;20.038;2023-12-14T19:18:35;3.10;;;2.10;;
15065;SDS011;7632;64.944;20.038;2023-12-14T19:21:02;4.23;;;1.97;;
15065;SDS011;7632;64.944;20.038;2023-12-14T19:23:29;3.00;;;1.93;;
15065;SDS011;7632;64.944;20.038;2023-12-14T19:25:56;3.63;;;1.93;;
15065;SDS011;7632;64.944;20.038;2023-12-14T19:28:25;2.40;;;1.67;;
15065;SDS011;7632;64.944;20.038;2023-12-14T19:30:51;3.00;;;1.67;;
15065;SDS011;7632;64.944;20.038;2023-12-14T19:33:18;2.33;;;1.70;;
15065;SDS011;7632;64.944;20.038;2023-12-14T19:35:45;2.73;;;1.77;;
15065;SDS011;7632;64.944;20.038;2023-12-14T19:38:12;3.33;;;1.77;;
15065;SDS011;7632;64.944;20.038;2023-12-14T19:40:38;3.47;;;1.80;;
15065;SDS011;7632;64.944;20.038;2023-12-14T19:43:05;2.97;;;1.90;;
15065;SDS011;7632;64.944;20.038;2023-12-14T19:45:33;3.33;;;1.73;;
15065;SDS011;7632;64.944;20.038;2023-12-14T19:48:00;3.63;;;2.00;;
15065;SDS011;7632;64.944;20.038;2023-12-14T19:50:27;2.70;;;1.73;;
15065;SDS011;7632;64.944;20.038;2023-12-14T19:52:54;3.40;;;2.00;;
15065;SDS011;7632;64.944;20.038;2023-12-14T19:55:20;3.67;;;1.87;;
15065;SDS011;7632;64.944;20.038;2023-12-14T19:57:47;3.10;;;1.53;;
15065;SDS011;7632;64.944;20.038;2023-12-14T20:00:16;2.47;;;1.57;;
15065;SDS011;7632;64.944;20.038;2023-12-14T20:02:45;3.03;;;1.60;;
15065;SDS011;7632;64.944;20.038;2023-12-14T20:05:12;3.40;;;1.93;;
15065;SDS011;7632;64.944;20.038;2023-12-14T20:07:38;2.57;;;1.70;;
15065;SDS011;7632;64.944;20.038;2023-12-14T23:12:38;2.17;;;1.80;;
15065;SDS011;7632;64.944;20.038;2023-12-14T23:15:05;2.30;;;1.63;;
15065;SDS011;7632;64.944;20.038;2023-12-14T23:17:33;2.93;;;1.93;;
15065;SDS011;7632;64.944;20.038;2023-12-14T23:20:00;2.87;;;1.70;;
15065;SDS011;7632;64.944;20.038;2023-12-14T23:22:27;2.97;;;1.77;;
15065;SDS011;7632;64.944;20.038;2023-12-14T23:24:54;2.17;;;1.70;;
15065;SDS011;7632;64.944;20.038;2023-12-14T23:27:22;3.50;;;2.10;;
15065;SDS011;7632;64.944;20.038;2023-12-14T23:29:49;2.30;;;2.00;;
15065;SDS011;7632;64.944;20.038;2023-12-14T23:32:16;3.40;;;1.90;;
15065;SDS011;7632;64.944;20.038;2023-12-14T23:34:43;1.67;;;1.57;;
15065;SDS011;7632;64.944;20.038;2023-12-14T23:37:09;3.03;;;1.53;;
15065;SDS011;7632;64.944;20.038;2023-12-14T23:39:36;3.33;;;2.10;;
15065;SDS011;7632;64.944;20.038;2023-12-14T23:42:03;2.50;;;1.80;;
15065;SDS011;7632;64.944;20.038;2023-12-14T23:44:31;2.43;;;1.80;;
15065;SDS011;7632;64.944;20.038;2023-12-14T23:46:58;2.80;;;1.80;;
15065;SDS011;7632;64.944;20.038;2023-12-14T23:49:25;2.80;;;1.80;;
15065;SDS011;7632;64.944;20.038;2023-12-14T23:51:52;2.87;;;1.93;;
15065;SDS011;7632;64.944;20.038;2023-12-14T23:54:18;1.90;;;1.53;;
15065;SDS011;7632;64.944;20.038;2023-12-14T23:56:45;2.10;;;1.60;;
15065;SDS011;7632;64.944;20.038;2023-12-14T23:59:12;3.27;;;1.90;;
